Hovedside
METAR-TAF:

METAR-TAF

Lufthavner :

Göteborg City lufthavn

Göteborg, Sverige

breddegrad: 57-47N, lengdegrad: 011-53E, høyde over havet: 20 m

Gjeldene værobservasjon

Denne rapporten ble laget for 37 minutter siden, klokken 16:50 UTC
Vind 6 kt fra Sør-sørvest, skiftende mellom Sør og Vest-sørvest
Temperatur 19°C
Luftfuktighet 68%
Trykk 1019 hPa
Sikt 10 km eller mer

METAR: ESGP 241650Z AUTO 20006KT 180V240 9999 NCD 19/13 Q1019

Tid: 19:27 (17:27 UTC)


TAF: fraværende

Værobservasjoner og værvarsel for over 4000 flyplasser (METAR- og TAF-rapporter).

Tilgjengelige stasjoner er representert av de røde og gule prikkene på kartet.

Hold musepekeren over prikken for å se navnet på stasjonen.

Klikk så for å se værobservasjoner og -varsler.

For å forandre kartet kan du klikke på den grønne knappen med svart kryss for å zoome inn, på den grønne knappen med strek for å zoome ut, eller på de grønne pilene for å se tilstøtende kart.


METAR-TAF: